createdAt,value
2022-07-25T00:02:22.808Z,99.90
2022-07-25T00:04:50.955Z,99.90
2022-07-25T00:07:19.068Z,99.90
2022-07-25T00:09:47.135Z,99.90
2022-07-25T00:12:15.257Z,99.90
2022-07-25T00:14:43.509Z,99.90
2022-07-25T00:17:12.115Z,99.90
2022-07-25T00:19:41.751Z,99.90
2022-07-25T00:22:09.830Z,99.90
2022-07-25T00:24:38.093Z,99.90
2022-07-25T00:27:06.508Z,99.90
2022-07-25T00:29:34.684Z,99.90
2022-07-25T00:32:02.993Z,99.90
2022-07-25T00:34:31.131Z,99.90
2022-07-25T00:37:00.677Z,99.90
2022-07-25T00:39:28.808Z,99.90
2022-07-25T00:41:56.918Z,99.90
2022-07-25T00:44:25.880Z,99.90
2022-07-25T00:46:54.544Z,99.90
2022-07-25T00:49:22.840Z,99.90
2022-07-25T00:51:51.274Z,99.90
2022-07-25T00:54:21.575Z,99.90
2022-07-25T00:56:50.740Z,99.90
2022-07-25T00:59:18.854Z,99.90
2022-07-25T01:01:48.357Z,99.90
2022-07-25T01:04:17.502Z,99.90
2022-07-25T01:06:45.671Z,99.90
2022-07-25T01:09:14.300Z,99.90
2022-07-25T01:11:44.172Z,99.90
2022-07-25T01:14:12.266Z,99.90
2022-07-25T01:16:41.695Z,99.90
2022-07-25T01:19:10.167Z,99.90
2022-07-25T01:21:42.339Z,99.90
2022-07-25T01:24:11.475Z,99.90
2022-07-25T01:26:40.031Z,99.90
2022-07-25T01:29:08.215Z,99.90
2022-07-25T01:31:36.365Z,99.90
2022-07-25T01:34:04.890Z,99.90
2022-07-25T01:36:33.270Z,99.90
2022-07-25T01:39:02.695Z,99.90
2022-07-25T01:41:30.786Z,99.90
2022-07-25T01:43:58.868Z,99.90
2022-07-25T01:46:27.167Z,99.90
2022-07-25T01:48:55.385Z,99.90
2022-07-25T01:51:23.565Z,99.90
2022-07-25T01:53:54.805Z,99.90
2022-07-25T01:56:24.281Z,99.90
2022-07-25T01:58:52.421Z,99.90
2022-07-25T02:01:21.875Z,99.90
2022-07-25T02:03:51.164Z,99.90
2022-07-25T02:06:20.858Z,99.90
2022-07-25T02:08:49.026Z,99.90
2022-07-25T02:11:18.330Z,99.90
2022-07-25T02:13:47.917Z,99.90
2022-07-25T02:16:16.044Z,99.90
2022-07-25T02:18:44.323Z,99.90
2022-07-25T02:21:14.198Z,99.90
2022-07-25T02:23:43.444Z,99.90
2022-07-25T02:26:12.334Z,99.90
2022-07-25T02:28:40.640Z,99.90
2022-07-25T02:31:10.607Z,99.90
2022-07-25T02:33:38.897Z,99.90
2022-07-25T02:36:07.692Z,99.90
2022-07-25T02:38:36.085Z,99.90
2022-07-25T02:41:04.486Z,99.90
2022-07-25T02:43:32.587Z,99.90
2022-07-25T02:46:00.868Z,99.90
2022-07-25T02:48:30.646Z,99.90
2022-07-25T02:50:58.784Z,99.90
2022-07-25T02:53:54.433Z,99.90
2022-07-25T02:56:15.395Z,99.90
2022-07-25T02:58:44.676Z,99.90
2022-07-25T03:01:12.874Z,99.90
2022-07-25T03:03:42.481Z,99.90
2022-07-25T03:06:10.682Z,99.90
2022-07-25T03:08:38.759Z,99.90
2022-07-25T03:11:06.848Z,99.90
2022-07-25T03:13:35.109Z,99.90
2022-07-25T03:16:03.481Z,99.90
2022-07-25T03:18:31.566Z,99.90
2022-07-25T03:21:01.053Z,99.90
2022-07-25T03:23:30.866Z,99.90
2022-07-25T03:25:59.183Z,99.90
2022-07-25T03:28:27.272Z,99.90
2022-07-25T03:30:58.055Z,99.90
2022-07-25T03:33:26.135Z,99.90
2022-07-25T03:35:54.297Z,99.90
2022-07-25T03:38:24.690Z,99.90
2022-07-25T03:40:52.784Z,99.90
2022-07-25T03:43:20.898Z,99.90
2022-07-25T03:45:49.025Z,99.90
2022-07-25T03:48:17.144Z,99.90
2022-07-25T03:50:45.299Z,99.90
2022-07-25T03:53:13.563Z,99.90
2022-07-25T03:55:43.135Z,99.90
2022-07-25T03:58:11.257Z,99.90
2022-07-25T04:00:39.345Z,99.90
2022-07-25T04:03:07.492Z,99.90
2022-07-25T04:05:35.666Z,99.90
2022-07-25T04:08:03.758Z,99.90
2022-07-25T04:10:33.029Z,99.90
2022-07-25T04:13:03.564Z,99.90
2022-07-25T04:15:31.632Z,99.90
2022-07-25T04:17:59.771Z,99.90
2022-07-25T04:20:28.795Z,99.90
2022-07-25T04:22:57.551Z,99.90
2022-07-25T04:25:25.683Z,99.90
2022-07-25T04:27:54.020Z,99.90
2022-07-25T04:30:24.507Z,99.90
2022-07-25T04:32:53.483Z,99.90
2022-07-25T04:35:21.765Z,99.90
2022-07-25T04:37:50.221Z,99.90
2022-07-25T04:40:18.339Z,99.90
2022-07-25T04:42:46.440Z,99.90
2022-07-25T04:45:17.691Z,99.90
2022-07-25T04:47:47.953Z,99.90
2022-07-25T04:50:19.620Z,99.90
2022-07-25T04:52:49.970Z,99.90
2022-07-25T04:55:18.065Z,99.90
2022-07-25T04:57:47.007Z,99.90
2022-07-25T05:00:16.681Z,99.90
2022-07-25T05:02:47.287Z,99.90
2022-07-25T05:05:21.161Z,99.90
2022-07-25T05:07:50.621Z,99.90
2022-07-25T05:10:18.749Z,99.90
2022-07-25T05:12:48.117Z,99.90
2022-07-25T05:15:16.188Z,99.90
2022-07-25T05:17:44.627Z,99.90
2022-07-25T05:20:14.502Z,99.90
2022-07-25T05:22:43.168Z,99.90
2022-07-25T05:25:12.505Z,99.90
2022-07-25T05:27:41.083Z,99.90
2022-07-25T05:30:12.336Z,99.90
2022-07-25T05:32:41.041Z,99.90
2022-07-25T05:35:10.619Z,99.90
2022-07-25T05:37:40.058Z,99.90
2022-07-25T05:40:09.384Z,99.90
2022-07-25T05:42:37.539Z,99.90
2022-07-25T05:45:06.752Z,99.90
2022-07-25T05:47:34.815Z,99.90
2022-07-25T05:50:03.254Z,99.90
2022-07-25T05:52:31.451Z,99.90
2022-07-25T05:55:00.968Z,99.90
2022-07-25T05:57:29.000Z,99.90
2022-07-25T05:59:57.929Z,99.90
2022-07-25T06:02:26.167Z,99.90
2022-07-25T06:04:54.510Z,99.90
2022-07-25T06:07:23.708Z,99.90
2022-07-25T06:09:51.812Z,99.90
2022-07-25T06:12:21.294Z,99.90
2022-07-25T06:14:52.490Z,99.90
2022-07-25T06:17:20.624Z,99.90
2022-07-25T06:19:48.738Z,99.90
2022-07-25T06:22:16.879Z,99.90
2022-07-25T06:24:45.073Z,99.90
2022-07-25T06:27:17.198Z,99.90
2022-07-25T06:29:50.620Z,99.90
2022-07-25T06:32:18.700Z,99.90
2022-07-25T06:34:46.925Z,99.90
2022-07-25T06:37:15.974Z,99.90
2022-07-25T06:39:46.067Z,99.90
2022-07-25T06:42:14.526Z,99.90
2022-07-25T06:44:42.751Z,99.90
2022-07-25T06:47:13.541Z,99.90
2022-07-25T06:49:42.319Z,99.90
2022-07-25T06:52:10.499Z,99.90
2022-07-25T06:54:38.794Z,99.90
2022-07-25T06:57:06.988Z,99.90
2022-07-25T06:59:35.182Z,99.90
2022-07-25T07:02:03.292Z,99.90
2022-07-25T07:04:32.846Z,99.90
2022-07-25T07:07:00.977Z,99.90
2022-07-25T07:09:29.082Z,99.90
2022-07-25T07:11:57.201Z,99.90
2022-07-25T07:14:25.339Z,99.90
2022-07-25T07:16:53.448Z,99.90
2022-07-25T07:19:21.513Z,99.90
2022-07-25T07:21:51.452Z,99.90
2022-07-25T07:24:23.462Z,99.90
2022-07-25T07:26:53.513Z,99.90
2022-07-25T07:29:22.220Z,99.90
2022-07-25T07:31:50.784Z,99.90
2022-07-25T07:34:18.984Z,99.90
2022-07-25T07:36:47.276Z,99.90
2022-07-25T07:39:17.528Z,98.20
2022-07-25T07:41:45.726Z,99.20
2022-07-25T07:44:13.849Z,97.90
2022-07-25T07:46:42.107Z,97.50
2022-07-25T07:49:10.787Z,98.70
2022-07-25T07:51:39.315Z,98.20
2022-07-25T07:54:25.468Z,99.80
2022-07-25T07:56:54.893Z,99.50
2022-07-25T07:59:34.042Z,98.20
2022-07-25T08:02:08.050Z,98.90
2022-07-25T08:04:36.425Z,99.90
2022-07-25T08:07:04.644Z,99.90
2022-07-25T08:09:32.797Z,99.90
2022-07-25T08:12:02.300Z,99.90
2022-07-25T08:14:31.255Z,99.90
2022-07-25T08:16:59.560Z,99.90
2022-07-25T08:19:28.004Z,99.90
2022-07-25T08:21:56.091Z,99.90
2022-07-25T08:24:24.241Z,99.90
2022-07-25T08:26:52.387Z,99.90
2022-07-25T08:29:27.679Z,99.90
2022-07-25T08:31:56.207Z,99.90
2022-07-25T08:34:24.705Z,99.90
2022-07-25T08:36:52.916Z,99.90
2022-07-25T08:39:20.996Z,99.90
2022-07-25T08:42:02.002Z,99.90
2022-07-25T08:44:37.436Z,99.90
2022-07-25T08:47:06.060Z,99.90
2022-07-25T08:49:38.979Z,99.90
2022-07-25T08:52:09.741Z,99.90
2022-07-25T08:54:38.461Z,99.90
2022-07-25T08:57:07.121Z,99.20
2022-07-25T08:59:36.589Z,97.70
2022-07-25T09:02:07.412Z,97.60
2022-07-25T09:04:36.061Z,97.70
2022-07-25T09:07:08.096Z,98.00
2022-07-25T09:09:39.330Z,98.70
2022-07-25T09:12:08.643Z,97.60
2022-07-25T09:14:45.455Z,96.60
2022-07-25T09:17:22.550Z,95.20
2022-07-25T09:20:18.376Z,94.40
2022-07-25T09:22:46.968Z,90.80
2022-07-25T09:25:26.288Z,90.10
2022-07-25T09:27:54.428Z,90.70
2022-07-25T09:30:24.253Z,91.10
2022-07-25T09:33:02.107Z,91.30
2022-07-25T09:35:47.885Z,91.60
2022-07-25T09:38:17.612Z,91.90
2022-07-25T09:40:55.893Z,91.70
2022-07-25T09:43:36.078Z,92.00
2022-07-25T09:46:06.247Z,91.80
2022-07-25T09:48:34.912Z,91.60
2022-07-25T09:51:03.643Z,90.60
2022-07-25T09:53:31.860Z,90.90
2022-07-25T09:56:00.482Z,91.40
2022-07-25T09:58:29.858Z,88.70
2022-07-25T10:01:02.579Z,90.10
2022-07-25T10:03:53.299Z,88.40
2022-07-25T10:06:26.161Z,88.30
2022-07-25T10:08:55.238Z,88.10
2022-07-25T10:11:25.353Z,84.30
2022-07-25T10:13:54.489Z,86.40
2022-07-25T10:16:24.031Z,86.90
2022-07-25T10:18:55.480Z,86.90
2022-07-25T10:21:27.452Z,88.20
2022-07-25T10:24:01.460Z,85.50
2022-07-25T10:26:30.108Z,84.60
2022-07-25T10:28:59.537Z,82.80
2022-07-25T10:31:36.358Z,81.70
2022-07-25T10:34:08.236Z,80.50
2022-07-25T10:36:44.848Z,76.70
2022-07-25T10:39:15.140Z,72.40
2022-07-25T10:41:44.793Z,72.50
2022-07-25T10:44:14.787Z,75.50
2022-07-25T10:46:45.099Z,77.90
2022-07-25T10:49:29.044Z,76.80
2022-07-25T10:52:03.068Z,74.90
2022-07-25T10:54:35.716Z,74.80
2022-07-25T10:57:06.135Z,76.50
2022-07-25T10:59:36.801Z,78.40
2022-07-25T11:02:06.624Z,79.50
2022-07-25T11:04:38.415Z,78.30
2022-07-25T11:07:10.632Z,78.80
2022-07-25T11:09:40.053Z,81.50
2022-07-25T11:12:09.063Z,81.80
2022-07-25T11:14:41.220Z,82.80
2022-07-25T11:17:18.649Z,83.20
2022-07-25T11:19:57.145Z,83.40
2022-07-25T11:22:25.703Z,80.90
2022-07-25T11:24:54.161Z,77.20
2022-07-25T11:27:24.311Z,76.80
2022-07-25T11:29:52.881Z,77.80
2022-07-25T11:32:21.237Z,77.80
2022-07-25T11:34:52.923Z,78.10
2022-07-25T11:37:21.221Z,77.10
2022-07-25T11:39:50.178Z,76.50
2022-07-25T11:42:19.601Z,76.70
2022-07-25T11:44:49.498Z,80.70
2022-07-25T11:47:26.643Z,80.30
2022-07-25T11:49:58.069Z,82.60
2022-07-25T11:52:30.919Z,82.90
2022-07-25T11:55:01.325Z,81.90
2022-07-25T11:57:36.660Z,80.80
2022-07-25T12:00:09.469Z,82.90
2022-07-25T12:02:37.847Z,83.90
2022-07-25T12:05:09.850Z,85.20
2022-07-25T12:07:45.089Z,88.00
2022-07-25T12:10:16.603Z,88.50
2022-07-25T12:12:46.526Z,90.60
2022-07-25T12:15:15.028Z,99.90
2022-07-25T12:17:44.273Z,1.00
2022-07-25T12:20:16.652Z,90.90
2022-07-25T12:22:53.607Z,91.40
2022-07-25T12:25:21.913Z,89.90
2022-07-25T12:27:50.954Z,86.80
2022-07-25T12:30:20.762Z,87.50
2022-07-25T12:32:49.055Z,90.80
2022-07-25T12:35:18.711Z,88.40
2022-07-25T12:38:12.026Z,87.00
2022-07-25T12:40:40.463Z,84.80
2022-07-25T12:43:09.553Z,85.70
2022-07-25T12:45:37.737Z,85.50
2022-07-25T12:48:06.617Z,84.50
2022-07-25T12:50:36.226Z,82.50
2022-07-25T12:53:04.770Z,82.40
2022-07-25T12:55:33.053Z,84.30
2022-07-25T12:58:02.253Z,84.90
2022-07-25T13:00:30.380Z,80.90
2022-07-25T13:02:59.959Z,81.30
2022-07-25T13:05:28.491Z,82.90
2022-07-25T13:07:58.069Z,85.90
2022-07-25T13:10:26.381Z,86.80
2022-07-25T13:12:54.657Z,87.70
2022-07-25T13:15:23.463Z,88.30
2022-07-25T13:17:51.615Z,86.80
2022-07-25T13:20:41.077Z,86.10
2022-07-25T13:23:17.549Z,85.60
2022-07-25T13:25:50.315Z,85.80
2022-07-25T13:28:18.417Z,86.10
2022-07-25T13:30:46.497Z,86.00
2022-07-25T13:33:15.478Z,87.40
2022-07-25T13:35:43.588Z,88.50
2022-07-25T13:38:15.529Z,88.30
2022-07-25T13:40:43.816Z,87.90
2022-07-25T13:43:12.993Z,87.50
2022-07-25T13:45:42.236Z,89.30
2022-07-25T13:50:59.596Z,90.70
2022-07-25T13:53:30.495Z,90.10
2022-07-25T13:55:59.200Z,90.50
2022-07-25T13:58:27.819Z,91.20
2022-07-25T14:00:56.270Z,92.20
2022-07-25T14:03:24.590Z,92.20
2022-07-25T14:06:14.390Z,91.70
2022-07-25T14:08:47.917Z,92.60
2022-07-25T14:11:16.076Z,91.10
2022-07-25T14:13:45.209Z,91.60
2022-07-25T14:16:16.453Z,90.60
2022-07-25T14:18:44.588Z,89.70
2022-07-25T14:21:12.917Z,90.40
2022-07-25T14:26:42.090Z,93.70
2022-07-25T14:29:13.780Z,92.30
2022-07-25T14:31:42.424Z,91.60
2022-07-25T14:34:17.767Z,90.20
2022-07-25T14:37:01.845Z,90.60
2022-07-25T14:39:30.641Z,90.50
2022-07-25T14:42:00.809Z,90.60
2022-07-25T14:44:28.990Z,90.90
2022-07-25T14:46:57.611Z,90.90
2022-07-25T14:52:22.416Z,91.40
2022-07-25T14:54:51.436Z,93.10
2022-07-25T14:57:20.911Z,96.70
2022-07-25T14:59:50.145Z,97.00
2022-07-25T15:02:18.248Z,98.30
2022-07-25T15:04:46.402Z,97.10
2022-07-25T15:07:14.771Z,95.80
2022-07-25T15:09:42.873Z,94.90
2022-07-25T15:12:16.336Z,93.90
2022-07-25T15:14:48.644Z,94.70
2022-07-25T15:17:16.718Z,93.40
2022-07-25T15:19:44.754Z,93.80
2022-07-25T15:22:12.840Z,94.60
2022-07-25T15:25:14.020Z,93.10
2022-07-25T15:27:30.578Z,93.20
2022-07-25T15:30:00.002Z,91.10
2022-07-25T15:32:28.084Z,90.40
2022-07-25T15:34:56.168Z,91.40
2022-07-25T15:37:24.360Z,90.80
2022-07-25T15:39:52.461Z,90.10
2022-07-25T15:42:21.930Z,91.40
2022-07-25T15:45:09.089Z,90.90
2022-07-25T15:47:45.163Z,91.50
2022-07-25T15:50:16.017Z,90.80
2022-07-25T15:52:44.133Z,88.70
2022-07-25T15:55:12.225Z,87.60
2022-07-25T15:57:40.412Z,88.80
2022-07-25T16:00:10.108Z,86.10
2022-07-25T16:02:38.353Z,86.10
2022-07-25T16:05:10.042Z,86.30
2022-07-25T16:07:38.400Z,86.90
2022-07-25T16:10:07.395Z,88.30
2022-07-25T16:12:35.613Z,87.60
2022-07-25T16:15:04.397Z,90.10
2022-07-25T16:17:33.156Z,91.00
2022-07-25T16:20:01.609Z,91.10
2022-07-25T16:22:32.765Z,91.40
2022-07-25T16:25:02.817Z,91.60
2022-07-25T16:27:31.415Z,92.00
2022-07-25T16:30:02.156Z,92.30
2022-07-25T16:32:30.617Z,91.80
2022-07-25T16:34:59.090Z,93.40
2022-07-25T16:37:27.276Z,93.80
2022-07-25T16:39:56.723Z,93.60
2022-07-25T16:42:24.928Z,92.30
2022-07-25T16:44:52.977Z,92.90
2022-07-25T16:47:22.384Z,90.90
2022-07-25T16:49:51.793Z,91.20
2022-07-25T16:52:27.058Z,90.30
2022-07-25T16:55:18.748Z,90.00
2022-07-25T16:57:47.289Z,88.40
2022-07-25T17:00:15.714Z,88.00
2022-07-25T17:02:44.969Z,88.90
2022-07-25T17:05:13.408Z,88.30
2022-07-25T17:07:41.564Z,86.20
2022-07-25T17:10:10.514Z,87.40
2022-07-25T17:12:43.279Z,84.80
2022-07-25T17:15:20.978Z,84.00
2022-07-25T17:17:50.532Z,84.10
2022-07-25T17:20:23.103Z,82.60
2022-07-25T17:23:02.910Z,82.80
2022-07-25T17:25:34.521Z,81.70
2022-07-25T17:28:04.017Z,83.40
2022-07-25T17:30:38.151Z,86.50
2022-07-25T17:33:06.341Z,84.40
2022-07-25T17:35:36.185Z,83.80
2022-07-25T17:38:05.694Z,85.10
2022-07-25T17:40:34.246Z,84.50
2022-07-25T17:43:03.724Z,81.90
2022-07-25T17:45:31.916Z,84.10
2022-07-25T17:48:00.104Z,82.40
2022-07-25T17:50:29.606Z,82.90
2022-07-25T17:53:26.032Z,82.00
2022-07-25T17:55:55.220Z,80.30
2022-07-25T17:58:34.663Z,80.70
2022-07-25T18:01:30.642Z,81.90
2022-07-25T18:03:58.874Z,82.60
2022-07-25T18:06:29.851Z,83.90
2022-07-25T18:08:58.348Z,81.80
2022-07-25T18:11:26.934Z,83.10
2022-07-25T18:14:02.878Z,83.00
2022-07-25T18:16:32.213Z,82.00
2022-07-25T18:19:00.490Z,80.90
2022-07-25T18:22:00.685Z,80.10
2022-07-25T18:24:31.832Z,79.30
2022-07-25T18:27:06.715Z,79.70
2022-07-25T18:29:38.259Z,81.50
2022-07-25T18:32:07.552Z,82.00
2022-07-25T18:34:36.583Z,81.70
2022-07-25T18:37:05.887Z,80.70
2022-07-25T18:39:33.990Z,80.10
2022-07-25T18:42:02.124Z,80.40
2022-07-25T18:44:32.303Z,81.50
2022-07-25T18:47:02.197Z,79.00
2022-07-25T18:49:31.945Z,79.80
2022-07-25T18:52:00.048Z,80.20
2022-07-25T18:54:28.222Z,81.50
2022-07-25T18:56:56.401Z,81.40
2022-07-25T18:59:25.384Z,82.60
2022-07-25T19:01:54.893Z,82.50
2022-07-25T19:04:24.484Z,83.40
2022-07-25T19:06:52.675Z,83.30
2022-07-25T19:09:20.756Z,84.70
2022-07-25T19:11:49.045Z,84.30
2022-07-25T19:14:17.124Z,85.50
2022-07-25T19:16:45.532Z,87.00
2022-07-25T19:19:13.661Z,87.50
2022-07-25T19:21:44.996Z,89.10
2022-07-25T19:24:13.171Z,90.30
2022-07-25T19:26:42.406Z,89.60
2022-07-25T19:29:11.903Z,90.70
2022-07-25T19:31:40.142Z,90.30
2022-07-25T19:34:08.817Z,90.90
2022-07-25T19:36:37.132Z,91.30
2022-07-25T19:39:07.114Z,91.10
2022-07-25T19:41:36.391Z,92.40
2022-07-25T19:44:04.841Z,92.40
2022-07-25T19:46:34.360Z,92.60
2022-07-25T19:49:04.215Z,92.60
2022-07-25T19:51:33.197Z,92.10
2022-07-25T19:54:03.304Z,92.90
2022-07-25T19:56:34.173Z,92.50
2022-07-25T19:59:02.644Z,93.10
2022-07-25T20:01:31.469Z,93.40
2022-07-25T20:03:59.715Z,93.50
2022-07-25T20:06:27.811Z,93.70
2022-07-25T20:08:55.920Z,93.40
2022-07-25T20:11:24.014Z,93.80
2022-07-25T20:13:53.775Z,93.90
2022-07-25T20:16:21.999Z,94.60
2022-07-25T20:18:50.461Z,95.30
2022-07-25T20:21:18.911Z,96.00
2022-07-25T20:23:47.544Z,96.50
2022-07-25T20:26:15.768Z,97.30
2022-07-25T20:28:44.052Z,97.50
2022-07-25T20:31:13.898Z,97.80
2022-07-25T20:33:42.521Z,98.80
2022-07-25T20:36:11.829Z,98.90
2022-07-25T20:38:40.047Z,99.70
2022-07-25T20:41:08.131Z,98.90
2022-07-25T20:43:37.916Z,99.90
2022-07-25T20:46:09.281Z,99.90
2022-07-25T20:48:39.184Z,99.90
2022-07-25T20:51:07.580Z,99.40
2022-07-25T20:53:35.695Z,99.40
2022-07-25T20:56:03.777Z,99.00
2022-07-25T20:58:32.684Z,99.90
2022-07-25T21:01:01.035Z,99.90
2022-07-25T21:03:29.336Z,99.90
2022-07-25T21:05:58.802Z,99.90
2022-07-25T21:08:26.870Z,99.90
2022-07-25T21:10:55.101Z,99.90
2022-07-25T21:13:23.324Z,99.90
2022-07-25T21:15:51.801Z,99.90
2022-07-25T21:18:20.379Z,99.90
2022-07-25T21:20:48.893Z,99.90
2022-07-25T21:23:18.369Z,99.90
2022-07-25T21:25:46.441Z,99.90
2022-07-25T21:28:14.528Z,99.90
2022-07-25T21:30:44.003Z,99.90
2022-07-25T21:33:14.844Z,99.90
2022-07-25T21:35:46.731Z,99.90
2022-07-25T21:38:27.430Z,99.90
2022-07-25T21:40:57.250Z,99.90
2022-07-25T21:43:25.805Z,99.90
2022-07-25T21:45:54.574Z,99.90
2022-07-25T21:48:42.844Z,99.90
2022-07-25T21:51:10.504Z,99.90
2022-07-25T21:53:49.295Z,99.90
2022-07-25T21:56:17.463Z,99.90
2022-07-25T21:58:45.700Z,99.90
2022-07-25T22:01:13.926Z,99.90
2022-07-25T22:03:42.036Z,99.90
2022-07-25T22:06:10.543Z,99.90
2022-07-25T22:08:39.407Z,99.90
2022-07-25T22:11:20.816Z,99.90
2022-07-25T22:13:56.894Z,99.90
2022-07-25T22:16:25.236Z,99.90
2022-07-25T22:18:53.343Z,99.90
2022-07-25T22:21:21.510Z,99.90
2022-07-25T22:23:49.712Z,99.90
2022-07-25T22:26:20.176Z,99.90
2022-07-25T22:28:48.372Z,99.90
2022-07-25T22:31:16.594Z,99.90
2022-07-25T22:33:44.757Z,99.90
2022-07-25T22:36:13.002Z,99.90
2022-07-25T22:38:41.100Z,99.90
2022-07-25T22:41:11.375Z,99.90
2022-07-25T22:43:53.153Z,99.90
2022-07-25T22:46:26.887Z,99.90
2022-07-25T22:48:55.170Z,99.90
2022-07-25T22:51:23.295Z,99.90
2022-07-25T22:53:51.810Z,99.90
2022-07-25T22:56:20.269Z,99.90
2022-07-25T22:58:50.737Z,99.90
2022-07-25T23:01:18.999Z,99.90
2022-07-25T23:03:47.305Z,99.90
2022-07-25T23:06:15.368Z,99.90
2022-07-25T23:08:43.540Z,99.90
2022-07-25T23:11:11.728Z,99.90
2022-07-25T23:13:39.881Z,99.90
2022-07-25T23:16:10.347Z,99.90
2022-07-25T23:18:39.270Z,99.90
2022-07-25T23:21:07.646Z,99.90
2022-07-25T23:23:35.796Z,99.90
2022-07-25T23:26:03.988Z,99.90
2022-07-25T23:28:32.194Z,99.90
2022-07-25T23:31:00.312Z,99.90
2022-07-25T23:33:31.324Z,99.90
2022-07-25T23:35:59.792Z,99.90
2022-07-25T23:38:28.083Z,99.90
2022-07-25T23:40:56.150Z,99.90
2022-07-25T23:43:55.953Z,99.90
2022-07-25T23:46:12.432Z,99.90
2022-07-25T23:48:42.550Z,99.90
2022-07-25T23:51:10.707Z,99.90
2022-07-25T23:53:38.897Z,99.90
2022-07-25T23:56:07.222Z,99.90
2022-07-25T23:58:35.589Z,99.90
